Flight Track Log - Related Links

Times and Time Zones

All times are in EDT time to prevent confusion due to time zone crossing. See the ASQ6151 flight status page for this flight to view local times or setup timezone preferences in your user account.


Time Position Orientation Groundspeed Altitude Reporting Facility
EDT Latitude Longitude Course Direction KTS MPH feet Rate Location/Type
Wed 05:50:40 PM 32.2450 -81.1928 North 264 304 5,300  Level Jacksonville Center
Wed 05:51:40 PM 32.3178 -81.1864 North 264 304 7,900 2,350 Climbing Jacksonville Center
Wed 05:52:40 PM 32.3889 -81.1803 North 276 318 10,000 1,800 Climbing Jacksonville Center
Wed 05:53:40 PM 32.4789 -81.1958 352° North 293 337 11,500 1,300 Climbing Jacksonville Center
Wed 05:54:00 PM 32.6664 -81.1500 North  Level FlightAware Approximate
Wed 05:54:40 PM 32.5731 -81.2164 350° North 334 384 12,600  Level Jacksonville Center
Wed 05:55:00 PM 32.7589 -81.1427 North  Level FlightAware Approximate
Wed 05:55:40 PM 32.6672 -81.2367 350° North 360 414 13,800  Level Jacksonville Center
Wed 05:56:00 PM 32.8512 -81.1311 North  Level FlightAware Approximate
Wed 05:56:40 PM 32.7803 -81.2619 349° North 367 422 15,200  Level Jacksonville Center
Wed 05:57:40 PM 32.8850 -81.2847 350° North 372 428 16,600 1,350 Climbing Jacksonville Center
Wed 05:58:40 PM 32.9894 -81.3100 349° North 377 434 17,900 1,250 Climbing Jacksonville Center
Wed 05:59:40 PM 33.0922 -81.3356 348° North 377 434 19,100 1,200 Climbing Jacksonville Center
Wed 06:00:40 PM 33.2011 -81.3583 350° North 377 434 20,300 1,200 Climbing Jacksonville Center
Wed 06:01:40 PM 33.3119 -81.3814 350° North 387 445 21,500 1,200 Climbing Jacksonville Center
Wed 06:02:40 PM 33.4228 -81.4069 349° North 399 459 22,700 1,200 Climbing Jacksonville Center
Wed 06:03:40 PM 33.5381 -81.4347 349° North 405 466 23,900 1,250 Climbing Jacksonville Center
Wed 06:04:40 PM 33.6508 -81.4603 349° North 410 472 25,200 1,300 Climbing Jacksonville Center
Wed 06:05:40 PM 33.7617 -81.4836 350° North 410 472 26,500 900 Climbing Jacksonville Center
Wed 06:06:40 PM 33.8747 -81.5119 348° North 410 472 27,000 700 Climbing Jacksonville Center
Wed 06:07:40 PM 33.9772 -81.5353 349° North 416 479 27,900 1,281 Climbing Jacksonville Center
Wed 06:09:52 PM 34.2186 -81.5944 349° North 402 463 31,100 1,438 Climbing Atlanta Center
Wed 06:10:52 PM 34.3256 -81.6167 350° North 396 456 32,500 1,300 Climbing Atlanta Center
Wed 06:11:52 PM 34.4325 -81.6461 347° North 396 456 33,700 750 Climbing Atlanta Center
Wed 06:12:52 PM 34.5436 -81.6708 350° North 396 456 34,000 150 Climbing Atlanta Center
Wed 06:13:52 PM 34.6736 -81.7025 349° North 403 464 34,000  Level Atlanta Center
Wed 06:14:52 PM 34.7828 -81.7297 348° North 430 495 34,000  Level Atlanta Center
Wed 06:15:52 PM 34.9042 -81.7594 349° North 440 506 34,000  Level Atlanta Center
Wed 06:16:52 PM 35.0236 -81.7892 348° North 440 506 34,000  Level Atlanta Center
Wed 06:17:52 PM 35.1475 -81.8186 349° North 440 506 34,000  Level Atlanta Center
Wed 06:18:52 PM 35.2667 -81.8461 349° North 440 506 34,000  Level Atlanta Center
Wed 06:19:52 PM 35.4008 -81.8806 348° North 435 501 34,000  Level Atlanta Center
Wed 06:20:52 PM 35.5225 -81.9106 349° North 435 501 34,000  Level Atlanta Center
Wed 06:21:52 PM 35.6419 -81.9458 347° North 440 506 34,000  Level Atlanta Center
Wed 06:22:52 PM 35.7456 -82.0200 330° Northwest 428 493 34,000  Level Atlanta Center
Wed 06:23:52 PM 35.8489 -82.0969 329° Northwest 428 493 34,000  Level Atlanta Center
Wed 06:24:52 PM 35.9522 -82.1739 329° Northwest 435 501 34,000  Level Atlanta Center
Wed 06:25:52 PM 36.0514 -82.2511 328° Northwest 430 495 34,000  Level Atlanta Center
Wed 06:26:52 PM 36.1547 -82.3286 329° Northwest 430 495 34,000  Level Atlanta Center
Wed 06:27:52 PM 36.2581 -82.4064 329° Northwest 430 495 34,000  Level Atlanta Center
Wed 06:28:52 PM 36.3592 -82.4842 328° Northwest 437 503 34,000  Level Atlanta Center
Wed 06:29:52 PM 36.4625 -82.5647 328° Northwest 432 497 34,000  Level Atlanta Center
Wed 06:30:52 PM 36.5656 -82.6456 328° Northwest 432 497 34,000  Level Atlanta Center
Wed 06:31:41 PM 36.6378 -82.6989 329° Northwest 436 502 34,000  Level Indianapolis Center
Wed 06:32:43 PM 36.7400 -82.7786 328° Northwest 433 498 34,000  Level Indianapolis Center
Wed 06:33:45 PM 36.8589 -82.8703 328° Northwest 435 501 34,000  Level Indianapolis Center
Wed 06:34:47 PM 36.9664 -82.9547 328° Northwest 450 518 34,000  Level Indianapolis Center
Wed 06:35:49 PM 37.0781 -83.0428 328° Northwest 438 504 34,000  Level Indianapolis Center
Wed 06:36:51 PM 37.1814 -83.1239 328° Northwest 436 502 34,000  Level Indianapolis Center
Wed 06:37:53 PM 37.2847 -83.2064 328° Northwest 439 505 34,000  Level Indianapolis Center
Wed 06:38:55 PM 37.3886 -83.2881 328° Northwest 441 507 34,000  Level Indianapolis Center
Wed 06:39:57 PM 37.4922 -83.3711 328° Northwest 439 505 34,000  Level Indianapolis Center
Wed 06:40:59 PM 37.6131 -83.4664 328° Northwest 439 505 34,000  Level Indianapolis Center
Wed 06:42:01 PM 37.7164 -83.5508 327° Northwest 440 506 34,000  Level Indianapolis Center
Wed 06:43:03 PM 37.8192 -83.6331 328° Northwest 439 505 34,000  Level Indianapolis Center
Wed 06:44:05 PM 37.9242 -83.7153 328° Northwest 440 506 34,000  Level Indianapolis Center
Wed 06:45:07 PM 38.0272 -83.8006 327° Northwest 440 506 34,000  Level Indianapolis Center
Wed 06:46:09 PM 38.1300 -83.8856 327° Northwest 440 506 34,000  Level Indianapolis Center
Wed 06:47:11 PM 38.2506 -83.9819 328° Northwest 438 504 34,000  Level Indianapolis Center
Wed 06:48:13 PM 38.3531 -84.0667 327° Northwest 438 504 34,000  Level Indianapolis Center
Wed 06:49:15 PM 38.4567 -84.1497 328° Northwest 441 507 34,000  Level Indianapolis Center
Wed 06:50:18 PM 38.5583 -84.2353 327° Northwest 437 503 34,000  Level Indianapolis Center
Wed 06:51:20 PM 38.6561 -84.3214 325° Northwest 441 507 34,000  Level Indianapolis Center
Wed 06:52:22 PM 38.7617 -84.4406 319° Northwest 428 493 34,000 -435 Level Indianapolis Center
Wed 06:53:24 PM 38.8547 -84.5494 318° Northwest 431 496 33,100 -919 Descending Indianapolis Center
Wed 06:54:26 PM 38.9547 -84.6344 327° Northwest 447 514 32,100 -532 Descending Indianapolis Center
Wed 06:55:28 PM 39.0653 -84.7081 333° Northwest 446 513 32,000 -48 Descending Indianapolis Center
Wed 06:56:30 PM 39.1767 -84.7819 333° Northwest 446 513 32,000 -387 Level Indianapolis Center
Wed 06:57:32 PM 39.2886 -84.8564 333° Northwest 448 516 31,200 -968 Descending Indianapolis Center
Wed 06:58:34 PM 39.4036 -84.9339 332° Northwest 455 524 30,000 -1,403 Descending Indianapolis Center
Wed 06:59:36 PM 39.5358 -85.0239 332° Northwest 456 525 28,300 -968 Descending Indianapolis Center
Wed 07:00:38 PM 39.6547 -85.1031 333° Northwest 472 543 28,000 -145 Descending Indianapolis Center
Wed 07:01:40 PM 39.7728 -85.1833 332° Northwest 476 548 28,000 -484 Level Indianapolis Center
Wed 07:02:42 PM 39.8917 -85.2642 332° Northwest 479 551 27,000 -968 Descending Indianapolis Center
Wed 07:03:44 PM 40.0108 -85.3447 333° Northwest 480 552 26,000 -1,113 Descending Indianapolis Center
Wed 07:04:46 PM 40.1308 -85.4281 332° Northwest 486 559 24,700 -1,325 Descending Indianapolis Center
Wed 07:05:01 PM 40.1700 -85.4542 333° Northwest 486 559 24,300 -545 Descending Chicago Center
Wed 07:06:03 PM 40.2858 -85.5328 333° Northwest 471 542 24,000 -145 Descending Chicago Center
Wed 07:07:05 PM 40.3975 -85.6111 332° Northwest 457 526 24,000  Level Chicago Center
Wed 07:08:07 PM 40.5103 -85.6842 334° Northwest 453 521 24,000  Level Chicago Center
Wed 07:09:09 PM 40.6511 -85.7383 344° North 451 519 24,000 -48 Level Chicago Center
Wed 07:10:11 PM 40.7622 -85.7831 343° North 443 510 23,900 -629 Descending Chicago Center
Wed 07:11:13 PM 40.8486 -85.8939 316° Northwest 436 502 22,700 -919 Descending Chicago Center
Wed 07:12:15 PM 40.9050 -86.0353 298° West 433 498 22,000 -339 Descending Chicago Center
Wed 07:13:17 PM 40.9597 -86.1700 298° West 422 486 22,000  Level Chicago Center
Wed 07:14:19 PM 41.0156 -86.3083 298° West 426 490 22,000  Level Chicago Center
Wed 07:15:21 PM 41.0817 -86.4761 298° West 427 491 22,000 -968 Level Chicago Center
Wed 07:16:23 PM 41.1372 -86.6136 298° West 424 488 20,000 -2,081 Descending Chicago Center
Wed 07:17:25 PM 41.1911 -86.7489 298° West 407 468 17,700 -2,274 Descending Chicago Center
Wed 07:18:27 PM 41.2417 -86.8769 298° West 397 457 15,300 -2,274 Descending Chicago Center
Wed 07:19:29 PM 41.2889 -86.9992 297° West 381 438 13,000 -2,081 Descending Chicago Center
Wed 07:20:31 PM 41.3344 -87.1183 297° West 370 426 11,000 -976 Descending Chicago Center
Wed 07:21:32 PM 41.4067 -87.2428 308° West 363 418 11,000 45 Level Chicago Center
Wed 07:22:43 PM 41.5000 -87.3500 319° Northwest 371 427 11,100  Climbing Chicago TRACON
Wed 07:23:36 PM 41.5606 -87.4211 319° Northwest 370 426 11,000 -52 Descending Chicago Center
Wed 07:24:38 PM 41.6375 -87.5064 320° Northwest 366 421 11,000 -384 Level Chicago Center
Wed 07:25:41 PM 41.7228 -87.6025 320° Northwest 328 377 10,200 -1,056 Descending Chicago Center
Wed 07:26:43 PM 41.7850 -87.6733 320° Northwest 300 345 8,800 -1,258 Descending Chicago Center
Wed 07:27:45 PM 41.8572 -87.7083 340° North 296 341 7,600 -919 Descending Chicago Center
Wed 07:28:47 PM 41.9339 -87.7122 358° North 282 325 6,900 -655 Descending Chicago Center
Wed 07:29:44 PM 42.0167 -87.7167 358° North 253 291 6,300 -872 Descending Chicago TRACON
Wed 07:30:44 PM 42.0667 -87.6833 26° Northeast 239 275 5,200 -1,050 Descending Chicago TRACON
Wed 07:31:44 PM 42.1167 -87.7167 334° Northwest 211 243 4,200 -1,050 Descending Chicago TRACON
Wed 07:32:44 PM 42.1000 -87.7833 251° West 183 211 3,100 -900 Descending Chicago TRACON
Wed 07:33:44 PM 42.0667 -87.8167 217° Southwest 176 203 2,400 -700 Descending Chicago TRACON
Wed 07:34:44 PM 42.0333 -87.8500 217° Southwest 129 148 1,700 -694 Descending Chicago TRACON
Wed 07:35:45 PM 42.0000 -87.8833 217° Southwest 138 159 1,000 -689 Descending Chicago TRACON
Wed 07:37:00 PM 41.9817 -87.9067 238° Southwest  Level Estimated

Login

Don't have an account? Register now (free) for customized features, flight alerts, and more!